createdAt,value
2019-03-16T00:00:49.011Z,96652.25
2019-03-16T00:05:52.567Z,96654.59
2019-03-16T00:10:56.197Z,96653.75
2019-03-16T00:15:59.752Z,96653.51
2019-03-16T00:21:03.270Z,96668.20
2019-03-16T00:26:06.821Z,96665.02
2019-03-16T00:31:10.408Z,96675.84
2019-03-16T00:36:14.125Z,96693.37
2019-03-16T00:41:17.570Z,96715.17
2019-03-16T00:46:21.044Z,96720.84
2019-03-16T00:51:24.509Z,96754.03
2019-03-16T00:56:27.956Z,96749.98
2019-03-16T01:01:31.408Z,96766.02
2019-03-16T01:06:35.087Z,96760.63
2019-03-16T01:11:39.591Z,96776.07
2019-03-16T01:16:42.989Z,96758.50
2019-03-16T01:21:46.599Z,96797.40
2019-03-16T01:26:50.021Z,96795.59
2019-03-16T01:31:53.440Z,96788.69
2019-03-16T01:36:56.972Z,96807.11
2019-03-16T01:42:00.447Z,96802.45
2019-03-16T01:47:03.958Z,96823.20
2019-03-16T01:52:07.521Z,96803.16
2019-03-16T01:57:11.101Z,96812.10
2019-03-16T02:02:14.621Z,96816.91
2019-03-16T02:07:18.182Z,96820.81
2019-03-16T02:12:21.639Z,96818.19
2019-03-16T02:17:25.052Z,96838.33
2019-03-16T02:22:28.566Z,96841.56
2019-03-16T02:27:31.960Z,96847.98
2019-03-16T02:32:35.368Z,96836.54
2019-03-16T02:37:38.907Z,96843.70
2019-03-16T02:42:42.282Z,96850.17
2019-03-16T02:47:45.902Z,96864.52
2019-03-16T02:52:50.136Z,96853.61
2019-03-16T02:57:52.820Z,96898.14
2019-03-16T03:02:56.228Z,96895.56
2019-03-16T03:07:59.704Z,96913.79
2019-03-16T03:13:03.108Z,96911.27
2019-03-16T03:18:06.657Z,96916.02
2019-03-16T03:23:10.074Z,96920.16
2019-03-16T03:28:13.455Z,96927.42
2019-03-16T03:33:17.002Z,96928.66
2019-03-16T03:38:20.540Z,96938.89
2019-03-16T03:43:25.084Z,96944.09
2019-03-16T03:48:28.504Z,96946.62
2019-03-16T03:53:32.124Z,96946.25
2019-03-16T03:58:35.808Z,96955.25
2019-03-16T04:03:39.263Z,96983.29
2019-03-16T04:08:42.707Z,96992.14
2019-03-16T04:13:46.244Z,96989.19
2019-03-16T04:18:51.698Z,96994.15
2019-03-16T04:23:53.092Z,96993.25
2019-03-16T04:28:56.477Z,97007.44
2019-03-16T04:33:59.926Z,97021.83
2019-03-16T04:39:03.391Z,97003.47
2019-03-16T04:44:06.847Z,97011.09
2019-03-16T04:49:10.244Z,97020.84
2019-03-16T04:54:13.752Z,97010.63
2019-03-16T04:59:17.168Z,97023.98
2019-03-16T05:04:20.608Z,97025.20
2019-03-16T05:09:24.022Z,97025.02
2019-03-16T05:14:28.240Z,97028.77
2019-03-16T05:19:31.650Z,97036.22
2019-03-16T05:24:35.091Z,97049.07
2019-03-16T05:29:38.508Z,97046.94
2019-03-16T05:34:55.557Z,97057.85
2019-03-16T05:39:45.399Z,97069.44
2019-03-16T05:44:48.797Z,97074.84
2019-03-16T05:49:52.373Z,97079.73
2019-03-16T05:54:55.785Z,97091.88
2019-03-16T05:59:59.234Z,97088.36
2019-03-16T06:05:10.556Z,97096.48
2019-03-16T06:10:07.376Z,97107.05
2019-03-16T06:15:10.818Z,97115.86
2019-03-16T06:20:14.319Z,97113.45
2019-03-16T06:25:17.731Z,97111.69
2019-03-16T06:30:21.217Z,97115.14
2019-03-16T06:35:29.147Z,97120.34
2019-03-16T06:40:28.116Z,97119.32
2019-03-16T06:45:31.507Z,97120.58
2019-03-16T06:50:34.896Z,97130.97
2019-03-16T06:55:38.347Z,97123.95
2019-03-16T07:00:41.788Z,97125.37
2019-03-16T07:05:45.310Z,97127.44
2019-03-16T07:10:48.731Z,97143.75
2019-03-16T07:15:52.272Z,97140.10
2019-03-16T07:20:55.781Z,97147.50
2019-03-16T07:25:59.194Z,97163.62
2019-03-16T07:31:02.640Z,97158.13
2019-03-16T07:36:06.095Z,97150.37
2019-03-16T07:41:09.603Z,97147.61
2019-03-16T07:46:13.088Z,97151.74
2019-03-16T07:51:16.574Z,97152.36
2019-03-16T07:56:21.079Z,97156.66
2019-03-16T08:01:24.565Z,97157.20
2019-03-16T08:06:28.078Z,97160.30
2019-03-16T08:11:31.572Z,97157.71
2019-03-16T08:16:35.012Z,97155.83
2019-03-16T08:21:38.504Z,97169.11
2019-03-16T08:26:41.888Z,97165.22
2019-03-16T08:31:45.327Z,97176.14
2019-03-16T08:36:48.733Z,97175.42
2019-03-16T08:41:53.206Z,97173.87
2019-03-16T08:46:56.689Z,97170.97
2019-03-16T08:52:00.133Z,97164.94
2019-03-16T08:57:03.611Z,97169.52
2019-03-16T09:02:07.049Z,97161.42
2019-03-16T09:07:10.444Z,97158.08
2019-03-16T09:12:13.877Z,97158.45
2019-03-16T09:17:17.319Z,97161.58
2019-03-16T09:22:20.803Z,97164.82
2019-03-16T09:27:30.988Z,97161.86
2019-03-16T09:32:27.695Z,97158.52
2019-03-16T09:37:31.097Z,97156.25
2019-03-16T09:42:34.643Z,97148.80
2019-03-16T09:47:38.151Z,97145.64
2019-03-16T09:52:41.591Z,97147.46
2019-03-16T09:57:45.043Z,97145.98
2019-03-16T10:02:48.597Z,97141.36
2019-03-16T10:07:52.031Z,97142.89
2019-03-16T10:12:55.604Z,97145.57
2019-03-16T10:17:59.039Z,97149.28
2019-03-16T10:23:02.548Z,97153.14
2019-03-16T10:28:06.139Z,97159.78
2019-03-16T10:33:11.124Z,97155.78
2019-03-16T10:38:12.984Z,97175.15
2019-03-16T10:43:16.570Z,97176.80
2019-03-16T10:48:20.289Z,97182.98
2019-03-16T10:53:23.835Z,97181.80
2019-03-16T10:58:27.501Z,97185.65
2019-03-16T11:03:31.132Z,97189.58
2019-03-16T11:08:34.766Z,97190.72
2019-03-16T11:13:38.304Z,97191.08
2019-03-16T11:18:41.717Z,97192.50
2019-03-16T11:23:45.238Z,97188.30
2019-03-16T11:28:48.709Z,97178.22
2019-03-16T11:33:52.221Z,97168.43
2019-03-16T11:38:56.156Z,97167.77
2019-03-16T11:43:59.675Z,97170.22
2019-03-16T11:49:03.175Z,97168.52
2019-03-16T11:54:06.584Z,97150.80
2019-03-16T11:59:20.972Z,97148.29
2019-03-16T12:04:13.641Z,97147.61
2019-03-16T12:09:17.107Z,97143.59
2019-03-16T12:14:20.593Z,97142.97
2019-03-16T12:19:24.082Z,97141.00
2019-03-16T12:24:27.496Z,97146.30
2019-03-16T12:29:34.333Z,97152.18
2019-03-16T12:34:34.394Z,97150.97
2019-03-16T12:39:37.981Z,97154.33
2019-03-16T12:44:41.527Z,97137.88
2019-03-16T12:49:45.137Z,97123.73
2019-03-16T12:54:48.623Z,97115.45
2019-03-16T12:59:52.171Z,97111.54
2019-03-16T13:04:55.832Z,97118.00
2019-03-16T13:09:59.511Z,97118.18
2019-03-16T13:15:03.052Z,97106.36
2019-03-16T13:20:06.767Z,97105.67
2019-03-16T13:25:10.445Z,97085.56
2019-03-16T13:30:14.255Z,97093.46
2019-03-16T13:35:17.824Z,97083.30
2019-03-16T13:40:21.526Z,97075.88
2019-03-16T13:45:24.988Z,97066.93
2019-03-16T13:50:28.537Z,97064.39
2019-03-16T13:55:32.253Z,97069.25
2019-03-16T14:00:35.789Z,97061.27
2019-03-16T14:05:39.599Z,97074.65
2019-03-16T14:10:43.096Z,97051.41
2019-03-16T14:15:46.626Z,97047.75
2019-03-16T14:20:50.240Z,97043.22
2019-03-16T14:25:53.868Z,97048.45
2019-03-16T14:30:57.372Z,97044.95
2019-03-16T14:36:00.982Z,97044.52
2019-03-16T14:41:05.701Z,97035.23
2019-03-16T14:46:09.250Z,97036.94
2019-03-16T14:51:12.907Z,97025.59
2019-03-16T14:56:16.874Z,97024.91
2019-03-16T15:01:20.506Z,97014.30
2019-03-16T15:06:24.254Z,97010.98
2019-03-16T15:11:27.789Z,97005.44
2019-03-16T15:16:31.255Z,97001.80
2019-03-16T15:21:34.834Z,96998.35
2019-03-16T15:26:39.465Z,96987.76
2019-03-16T15:31:42.979Z,96978.09
2019-03-16T15:36:46.598Z,96979.18
2019-03-16T15:41:50.106Z,96969.98
2019-03-16T15:46:54.121Z,96973.38
2019-03-16T15:51:57.680Z,96975.73
2019-03-16T15:57:01.254Z,96963.80
2019-03-16T16:02:04.843Z,96972.05
2019-03-16T16:07:08.400Z,96971.91
2019-03-16T16:12:12.008Z,96977.00
2019-03-16T16:17:15.584Z,96982.47
2019-03-16T16:22:19.156Z,96977.70
2019-03-16T16:27:24.118Z,96966.73
2019-03-16T16:32:26.316Z,96961.28
2019-03-16T16:37:29.908Z,96974.36
2019-03-16T16:42:33.573Z,96965.83
2019-03-16T16:47:37.123Z,96969.51
2019-03-16T16:52:40.716Z,96971.05
2019-03-16T16:57:44.357Z,96971.84
2019-03-16T17:02:47.950Z,96953.13
2019-03-16T17:07:51.448Z,96932.69
2019-03-16T17:12:55.045Z,96941.39
2019-03-16T17:17:58.668Z,96941.67
2019-03-16T17:23:02.200Z,96947.02
2019-03-16T17:28:05.873Z,96933.95
2019-03-16T17:33:09.389Z,96929.43
2019-03-16T17:38:13.017Z,96922.41
2019-03-16T17:43:16.536Z,96934.14
2019-03-16T17:48:20.293Z,96918.86
2019-03-16T17:53:23.818Z,96930.08
2019-03-16T17:58:27.428Z,96933.91
2019-03-16T18:03:31.084Z,96932.60
2019-03-16T18:08:34.594Z,96923.09
2019-03-16T18:13:38.200Z,96921.30
2019-03-16T18:18:41.884Z,96925.76
2019-03-16T18:23:45.533Z,96925.39
2019-03-16T18:28:49.096Z,96923.45
2019-03-16T18:33:52.686Z,96926.71
2019-03-16T18:38:56.192Z,96922.45
2019-03-16T18:43:59.736Z,96924.64
2019-03-16T18:49:03.251Z,96924.92
2019-03-16T18:54:06.797Z,96916.11
2019-03-16T18:59:10.344Z,96920.41
2019-03-16T19:04:13.888Z,96921.49
2019-03-16T19:09:17.523Z,96913.31
2019-03-16T19:14:21.251Z,96926.23
2019-03-16T19:19:24.916Z,96914.78
2019-03-16T19:24:28.730Z,96916.91
2019-03-16T19:29:32.280Z,96918.03
2019-03-16T19:34:35.828Z,96917.31
2019-03-16T19:39:39.660Z,96908.46
2019-03-16T19:44:43.189Z,96898.59
2019-03-16T19:49:46.816Z,96890.57
2019-03-16T19:54:50.629Z,96898.27
2019-03-16T20:00:00.027Z,96895.19
2019-03-16T20:05:03.916Z,96898.16
2019-03-16T20:10:08.255Z,96889.42
2019-03-16T20:15:12.131Z,96891.95
2019-03-16T20:20:16.475Z,96888.56
2019-03-16T20:25:20.186Z,96874.36
2019-03-16T20:30:26.874Z,96885.30
2019-03-16T20:35:27.758Z,96887.83
2019-03-16T20:40:31.709Z,96890.30
2019-03-16T20:45:35.597Z,96888.48
2019-03-16T20:50:39.092Z,96883.39
2019-03-16T20:55:43.110Z,96881.58
2019-03-16T21:00:48.059Z,96886.70
2019-03-16T21:05:51.341Z,96902.40
2019-03-16T21:10:54.845Z,96895.09
2019-03-16T21:15:59.280Z,96891.44
2019-03-16T21:21:03.393Z,96898.80
2019-03-16T21:26:06.956Z,96898.44
2019-03-16T21:31:10.819Z,96891.84
2019-03-16T21:36:14.863Z,96892.11
2019-03-16T21:41:18.775Z,96895.95
2019-03-16T21:46:22.601Z,96898.06
2019-03-16T21:51:26.385Z,96896.58
2019-03-16T21:56:29.959Z,96893.94
2019-03-16T22:01:33.880Z,96884.06
2019-03-16T22:06:37.501Z,96884.19
2019-03-16T22:11:41.451Z,96889.95
2019-03-16T22:16:45.486Z,96890.80
2019-03-16T22:21:49.349Z,96878.19
2019-03-16T22:26:52.945Z,96862.46
2019-03-16T22:31:56.481Z,96860.27
2019-03-16T22:37:00.102Z,96851.86
2019-03-16T22:42:03.659Z,96845.13
2019-03-16T22:47:07.261Z,96853.41
2019-03-16T22:52:10.780Z,96843.09
2019-03-16T22:57:14.274Z,96840.72
2019-03-16T23:02:17.994Z,96836.97
2019-03-16T23:07:21.707Z,96838.18
2019-03-16T23:12:25.367Z,96834.81
2019-03-16T23:17:28.901Z,96826.02
2019-03-16T23:22:32.437Z,96825.64
2019-03-16T23:27:36.141Z,96816.78
2019-03-16T23:32:39.693Z,96826.30
2019-03-16T23:37:43.268Z,96830.52
2019-03-16T23:42:46.984Z,96826.02
2019-03-16T23:47:50.729Z,96819.66
2019-03-16T23:52:54.375Z,96814.32
2019-03-16T23:57:57.808Z,96814.59
